Time;durP1;ratioP1;P1;durP2;ratioP2;P2;SDS_P1;SDS_P2;PMS_P1;PMS_P2;Temp;Humidity;BMP_temperature;BMP_pressure;BME280_temperature;BME280_humidity;BME280_pressure;Samples;Min_cycle;Max_cycle;Signal;HPM_P1;HPM_P2
2021/05/26 00:02:29;;;;;;;6.65;1.67;;;;;;;10.46;97.50;100321.53;5221860;28;20032;-80
2021/05/26 00:05:00;;;;;;;2.47;1.35;;;;;;;10.44;98.07;100318.13;5223625;28;20024;-81
2021/05/26 00:07:30;;;;;;;5.00;1.80;;;;;;;10.22;98.71;100322.47;5223104;28;20466;-81
2021/05/26 00:10:01;;;;;;;3.72;1.35;;;;;;;10.17;98.51;100321.81;5222977;28;20094;-80
2021/05/26 00:12:31;;;;;;;6.13;1.70;;;;;;;9.94;99.82;100312.19;5223177;28;20107;-80
2021/05/26 00:15:03;;;;;;;4.35;1.80;;;;;;;10.01;100.00;100315.44;5205866;28;20028;-80
2021/05/26 00:17:33;;;;;;;5.50;1.73;;;;;;;10.04;100.00;100310.13;5223632;28;20030;-79
2021/05/26 00:20:04;;;;;;;3.58;1.73;;;;;;;10.04;99.80;100310.13;5226546;28;20029;-82
2021/05/26 00:22:35;;;;;;;5.10;1.67;;;;;;;9.96;100.00;100309.53;5211509;28;20021;-81
2021/05/26 00:25:06;;;;;;;4.47;2.05;;;;;;;10.17;100.00;100306.16;5211983;28;20044;-81
2021/05/26 00:27:37;;;;;;;3.88;1.85;;;;;;;10.03;100.00;100305.81;5211531;28;20028;-79
2021/05/26 00:30:08;;;;;;;3.88;1.90;;;;;;;10.20;99.84;100298.19;5230231;28;20029;-80
2021/05/26 00:32:39;;;;;;;4.65;1.70;;;;;;;10.21;99.47;100302.50;5210347;28;20025;-79
2021/05/26 00:35:09;;;;;;;3.50;1.98;;;;;;;10.21;99.70;100305.09;5212153;28;20091;-79
2021/05/26 00:37:40;;;;;;;8.05;2.10;;;;;;;10.14;100.00;100301.88;5229199;28;20088;-81
2021/05/26 00:40:10;;;;;;;4.35;2.05;;;;;;;10.18;100.00;100300.00;5229216;28;20032;-81
2021/05/26 00:42:41;;;;;;;4.15;1.98;;;;;;;10.17;100.00;100295.69;5229403;28;20029;-80
2021/05/26 00:45:14;;;;;;;5.88;2.35;;;;;;;10.25;99.79;100296.25;5225261;28;20470;-77
2021/05/26 00:47:47;;;;;;;4.82;2.10;;;;;;;10.32;100.00;100297.72;5206448;28;20021;-80
2021/05/26 00:50:26;;;;;;;6.72;2.20;;;;;;;10.33;100.00;100294.19;5209946;28;20021;-78
2021/05/26 00:53:14;;;;;;;4.53;2.08;;;;;;;10.24;100.00;100298.03;5225459;28;20051;-82
2021/05/26 00:55:45;;;;;;;5.35;1.90;;;;;;;10.26;100.00;100297.94;5225233;28;20510;-79
2021/05/26 00:58:15;;;;;;;3.92;1.92;;;;;;;10.46;100.00;100290.16;5209470;28;20033;-81
2021/05/26 01:00:46;;;;;;;5.38;1.90;;;;;;;10.28;100.00;100293.50;5206921;28;20132;-81
2021/05/26 01:03:16;;;;;;;5.07;1.88;;;;;;;10.34;100.00;100290.69;5225320;28;20085;-80
2021/05/26 01:05:46;;;;;;;6.53;1.63;;;;;;;10.28;100.00;100286.53;5226036;28;20047;-80
2021/05/26 01:08:16;;;;;;;3.33;1.73;;;;;;;10.41;100.00;100286.91;5207437;28;20316;-80
2021/05/26 01:10:47;;;;;;;4.38;1.60;;;;;;;10.36;100.00;100288.84;5225434;28;20039;-80
2021/05/26 01:13:19;;;;;;;4.38;1.73;;;;;;;10.28;100.00;100280.44;5225168;28;20035;-81
2021/05/26 01:15:49;;;;;;;4.68;1.90;;;;;;;10.25;100.00;100280.56;5206152;28;20025;-80
2021/05/26 01:18:28;;;;;;;4.63;1.70;;;;;;;10.42;100.00;100276.41;5206635;28;20039;-80
2021/05/26 01:21:01;;;;;;;5.53;1.55;;;;;;;10.35;100.00;100281.94;5225309;28;20108;-80
2021/05/26 01:23:33;;;;;;;6.68;1.90;;;;;;;10.21;100.00;100279.84;5224100;28;20052;-80
2021/05/26 01:26:05;;;;;;;4.35;1.80;;;;;;;10.25;100.00;100275.34;5222761;28;20033;-81
2021/05/26 01:28:36;;;;;;;4.15;1.60;;;;;;;10.28;100.00;100270.00;5227208;28;20024;-80
2021/05/26 01:31:07;;;;;;;4.22;1.90;;;;;;;10.19;100.00;100270.38;5205804;28;20029;-81
2021/05/26 01:33:37;;;;;;;5.10;1.95;;;;;;;10.08;100.00;100276.00;5204989;28;20082;-80
2021/05/26 01:36:08;;;;;;;4.10;2.10;;;;;;;10.05;100.00;100270.91;5222717;28;20072;-80
2021/05/26 01:38:38;;;;;;;5.30;1.90;;;;;;;10.12;100.00;100279.34;5208845;28;20032;-81
2021/05/26 01:41:08;;;;;;;11.88;2.17;;;;;;;10.21;100.00;100281.59;5224870;28;20558;-81
2021/05/26 01:43:39;;;;;;;5.43;1.90;;;;;;;10.05;100.00;100270.03;5211891;28;20078;-79
2021/05/26 01:46:09;;;;;;;4.93;1.90;;;;;;;10.14;100.00;100274.94;5225646;28;20051;-80
2021/05/26 01:48:39;;;;;;;6.50;2.08;;;;;;;10.17;100.00;100272.19;5207897;28;20654;-80
2021/05/26 01:51:10;;;;;;;6.45;2.10;;;;;;;10.13;100.00;100270.63;5208639;28;20048;-80
2021/05/26 01:53:40;;;;;;;6.82;2.13;;;;;;;10.12;100.00;100268.88;5221172;28;20021;-79
2021/05/26 01:56:22;;;;;;;6.00;2.28;;;;;;;10.06;100.00;100261.31;5204482;28;20033;-79
2021/05/26 01:58:54;;;;;;;5.18;2.30;;;;;;;10.23;100.00;100269.34;5204785;28;20031;-81
2021/05/26 02:01:26;;;;;;;5.90;2.40;;;;;;;10.30;100.00;100268.16;5227000;28;20543;-79
2021/05/26 02:03:57;;;;;;;7.50;2.65;;;;;;;10.13;100.00;100270.63;5209871;28;20025;-82
2021/05/26 02:06:27;;;;;;;4.10;2.33;;;;;;;10.22;100.00;100270.25;5228592;28;20067;-78
2021/05/26 02:08:58;;;;;;;4.20;2.40;;;;;;;10.20;100.00;100274.69;5226915;28;20031;-81
2021/05/26 02:14:18;;;;;;;7.75;2.95;;;;;;;10.13;100.00;100268.84;5227297;28;20055;-80
2021/05/26 02:16:49;;;;;;;6.97;2.67;;;;;;;10.14;100.00;100269.72;5210252;28;20024;-80
2021/05/26 02:19:19;;;;;;;7.10;2.63;;;;;;;10.06;100.00;100258.69;5209881;28;20115;-80
2021/05/26 02:21:49;;;;;;;5.18;2.45;;;;;;;10.17;100.00;100262.59;5209904;28;21358;-77
2021/05/26 02:24:20;;;;;;;4.88;2.70;;;;;;;10.15;100.00;100258.34;5206740;28;20052;-80
2021/05/26 02:26:50;;;;;;;4.38;2.42;;;;;;;10.18;100.00;100261.69;5208472;28;20545;-80
2021/05/26 02:29:20;;;;;;;5.97;2.75;;;;;;;10.13;100.00;100262.78;5228153;28;20036;-80
2021/05/26 02:31:50;;;;;;;5.93;2.90;;;;;;;10.08;100.00;100251.66;5211096;28;20049;-80
2021/05/26 02:34:21;;;;;;;6.70;3.05;;;;;;;10.01;100.00;100248.41;5210623;28;20223;-80
2021/05/26 02:36:51;;;;;;;7.30;3.05;;;;;;;10.05;100.00;100252.63;5228362;28;20021;-80
2021/05/26 02:39:21;;;;;;;4.93;2.85;;;;;;;10.03;100.00;100251.81;5210745;28;20111;-80
2021/05/26 02:41:52;;;;;;;8.35;3.33;;;;;;;10.17;100.00;100252.13;5209910;28;20040;-81
2021/05/26 02:44:22;;;;;;;8.15;3.40;;;;;;;10.04;100.00;100250.06;5228632;28;20028;-81
2021/05/26 02:46:53;;;;;;;8.95;3.10;;;;;;;10.19;100.00;100258.16;5210858;28;20021;-80
2021/05/26 02:49:23;;;;;;;5.43;3.25;;;;;;;9.94;100.00;100246.06;5210039;28;20028;-81
2021/05/26 02:51:53;;;;;;;6.90;3.58;;;;;;;9.92;100.00;100255.72;5226962;28;20024;-80
2021/05/26 02:54:24;;;;;;;10.00;3.60;;;;;;;10.08;100.00;100252.50;5227845;28;20495;-80
2021/05/26 02:56:54;;;;;;;8.27;3.60;;;;;;;10.10;100.00;100249.81;5210273;28;20074;-80
2021/05/26 02:59:24;;;;;;;6.57;3.67;;;;;;;9.95;100.00;100251.25;5210309;28;20395;-81
2021/05/26 03:01:54;;;;;;;5.88;3.50;;;;;;;10.14;100.00;100254.03;5210076;28;20021;-81
2021/05/26 03:04:25;;;;;;;8.32;3.75;;;;;;;10.02;100.00;100246.69;5227743;28;20028;-81
2021/05/26 03:06:55;;;;;;;7.65;3.60;;;;;;;10.13;100.00;100252.34;5228471;28;20036;-80
2021/05/26 03:09:25;;;;;;;8.43;3.58;;;;;;;10.14;100.00;100252.25;5209839;28;20632;-78
2021/05/26 03:11:55;;;;;;;6.22;3.22;;;;;;;10.28;100.00;100249.09;5230044;28;20040;-79
2021/05/26 03:14:26;;;;;;;7.45;3.50;;;;;;;10.21;100.00;100243.31;5231955;28;20116;-79
2021/05/26 03:16:56;;;;;;;8.02;3.40;;;;;;;10.36;100.00;100249.66;5213087;28;20021;-81
2021/05/26 03:19:26;;;;;;;9.30;3.30;;;;;;;10.15;100.00;100248.75;5228050;28;20025;-79
2021/05/26 03:21:58;;;;;;;8.30;3.22;;;;;;;10.34;100.00;100246.28;5225080;28;20068;-80
2021/05/26 03:24:28;;;;;;;6.53;3.22;;;;;;;10.29;100.00;100242.97;5225623;28;20029;-79
2021/05/26 03:26:59;;;;;;;7.45;2.95;;;;;;;10.29;100.00;100245.59;5225325;28;20032;-80
2021/05/26 03:29:29;;;;;;;7.78;3.10;;;;;;;10.23;100.00;100248.44;5207630;28;20032;-80
2021/05/26 03:31:59;;;;;;;6.05;2.65;;;;;;;10.09;100.00;100253.34;5207175;28;20106;-79
2021/05/26 03:34:29;;;;;;;6.00;2.97;;;;;;;10.19;100.00;100250.31;5225068;28;20097;-78
2021/05/26 03:37:00;;;;;;;9.15;3.08;;;;;;;10.23;100.00;100248.44;5207267;28;20029;-79
2021/05/26 03:39:30;;;;;;;6.57;2.95;;;;;;;10.12;100.00;100248.00;5203020;28;20031;-79
2021/05/26 03:42:00;;;;;;;7.57;3.25;;;;;;;10.10;100.00;100239.38;5206915;28;20198;-79
2021/05/26 03:44:31;;;;;;;8.18;3.00;;;;;;;10.05;100.00;100236.13;5224998;28;20025;-79
2021/05/26 03:47:01;;;;;;;9.60;3.30;;;;;;;10.20;100.00;100245.97;5225729;28;20110;-80
2021/05/26 03:49:31;;;;;;;10.50;3.28;;;;;;;10.05;100.00;100246.56;5227929;28;20024;-80
2021/05/26 03:52:02;;;;;;;8.30;3.22;;;;;;;10.10;100.00;100242.00;5226802;28;20029;-81
2021/05/26 03:54:34;;;;;;;8.95;3.38;;;;;;;10.18;100.00;100237.34;5227733;28;20082;-81
2021/05/26 03:57:05;;;;;;;9.40;3.40;;;;;;;10.17;100.00;100248.69;5201879;28;20036;-80
2021/05/26 03:59:35;;;;;;;10.52;3.80;;;;;;;10.02;100.00;100237.06;5222675;28;20021;-81
2021/05/26 04:02:06;;;;;;;6.95;3.28;;;;;;;10.21;100.00;100240.69;5224466;28;20029;-81
2021/05/26 04:04:38;;;;;;;7.60;3.28;;;;;;;10.41;100.00;100239.88;5225846;28;20061;-81
2021/05/26 04:07:09;;;;;;;9.23;3.38;;;;;;;10.34;100.00;100239.28;5227523;28;20024;-81
2021/05/26 04:09:39;;;;;;;5.95;3.25;;;;;;;10.28;100.00;100236.03;5208416;28;20371;-80
2021/05/26 04:12:10;;;;;;;9.07;3.28;;;;;;;10.24;100.00;100235.34;5223529;28;20154;-79
2021/05/26 04:14:40;;;;;;;9.38;3.40;;;;;;;10.25;100.00;100238.78;5212338;28;20116;-81
2021/05/26 04:17:10;;;;;;;9.95;3.40;;;;;;;10.32;100.00;100229.81;5211148;28;20051;-81
2021/05/26 04:19:41;;;;;;;7.88;3.20;;;;;;;10.35;99.95;100233.13;5212789;28;20075;-81
2021/05/26 04:22:11;;;;;;;8.75;3.15;;;;;;;10.74;97.49;100235.88;5212522;28;20663;-79
2021/05/26 04:24:41;;;;;;;8.65;2.80;;;;;;;11.39;94.71;100229.53;5214855;28;20040;-80
2021/05/26 04:27:12;;;;;;;12.43;3.00;;;;;;;12.17;89.53;100220.66;5215766;28;20052;-80
2021/05/26 04:29:42;;;;;;;6.53;2.50;;;;;;;13.54;83.31;100223.25;5215471;28;20029;-81
2021/05/26 04:32:12;;;;;;;6.10;2.40;;;;;;;13.65;81.20;100227.00;5213499;28;20036;-81
2021/05/26 04:34:43;;;;;;;6.70;2.15;;;;;;;12.67;86.11;100222.50;5213561;28;20049;-81
2021/05/26 04:37:13;;;;;;;5.93;2.20;;;;;;;12.54;87.60;100226.69;5210740;28;20029;-81
2021/05/26 04:39:44;;;;;;;7.45;2.30;;;;;;;13.41;84.38;100222.22;5205639;28;20052;-82
2021/05/26 04:42:14;;;;;;;7.22;2.10;;;;;;;12.94;85.46;100226.44;5211775;28;20028;-78
2021/05/26 04:44:45;;;;;;;8.50;1.98;;;;;;;12.52;86.26;100225.91;5213459;28;20433;-80
2021/05/26 04:47:15;;;;;;;8.57;2.55;;;;;;;11.85;90.84;100224.81;5212664;28;20083;-81
2021/05/26 04:49:45;;;;;;;6.22;2.40;;;;;;;11.78;91.42;100226.00;5229873;28;20032;-82
2021/05/26 04:52:16;;;;;;;9.70;2.38;;;;;;;11.78;91.92;100222.53;5228682;28;20033;-82
2021/05/26 04:54:46;;;;;;;7.18;2.30;;;;;;;11.70;92.47;100219.41;5212401;28;20036;-78
2021/05/26 04:57:16;;;;;;;7.85;2.33;;;;;;;13.17;86.45;100215.59;5230929;28;20078;-80
2021/05/26 04:59:47;;;;;;;7.68;2.40;;;;;;;14.22;81.98;100207.25;5212609;28;20092;-80
2021/05/26 05:02:17;;;;;;;7.80;2.47;;;;;;;13.53;83.70;100211.91;5229780;28;20036;-80
2021/05/26 05:04:47;;;;;;;7.35;2.53;;;;;;;12.60;85.06;100209.81;5213027;28;20025;-79
2021/05/26 05:07:17;;;;;;;7.22;2.05;;;;;;;12.13;88.71;100230.44;5231044;28;20067;-80
2021/05/26 05:09:48;;;;;;;9.98;2.63;;;;;;;12.82;87.30;100211.25;5212354;28;20059;-79
2021/05/26 05:12:18;;;;;;;7.72;2.40;;;;;;;13.83;81.70;100206.75;5228068;28;20107;-80
2021/05/26 05:14:49;;;;;;;9.43;1.98;;;;;;;15.11;76.63;100190.50;5213225;28;20035;-80
2021/05/26 05:17:19;;;;;;;8.82;1.90;;;;;;;16.04;73.46;100205.75;5212615;28;20025;-81
2021/05/26 05:19:49;;;;;;;11.05;2.10;;;;;;;17.58;68.75;100197.91;5212995;28;20380;-79
2021/05/26 05:22:19;;;;;;;6.68;1.60;;;;;;;18.11;67.34;100192.28;5212766;28;20106;-81
2021/05/26 05:24:50;;;;;;;8.20;1.48;;;;;;;17.87;67.86;100188.78;5212811;28;20032;-79
2021/05/26 05:27:20;;;;;;;9.25;1.83;;;;;;;18.80;64.65;100188.81;5210971;28;20029;-81
2021/05/26 05:29:50;;;;;;;7.43;1.80;;;;;;;18.92;65.25;100192.34;5227921;28;20036;-82
2021/05/26 05:32:21;;;;;;;6.50;1.67;;;;;;;18.25;65.63;100186.84;5211217;28;20322;-81
2021/05/26 05:34:51;;;;;;;8.80;1.90;;;;;;;17.80;66.71;100182.25;5230148;28;20040;-81
2021/05/26 05:37:21;;;;;;;8.00;1.63;;;;;;;17.17;68.96;100192.81;5211542;28;20063;-82
2021/05/26 05:39:52;;;;;;;7.57;2.22;;;;;;;17.71;68.84;100189.03;5211745;28;20471;-79
2021/05/26 05:42:22;;;;;;;7.13;1.65;;;;;;;18.75;65.02;100185.66;5205322;28;20061;-81
2021/05/26 05:44:53;;;;;;;6.00;2.25;;;;;;;18.39;64.88;100189.38;5211848;28;20036;-79
2021/05/26 05:47:23;;;;;;;9.65;2.10;;;;;;;18.51;65.66;100183.19;5206860;28;20029;-81
2021/05/26 05:49:54;;;;;;;6.47;1.88;;;;;;;18.75;66.10;100174.25;5206163;28;20036;-80
2021/05/26 05:52:24;;;;;;;7.40;2.00;;;;;;;17.38;69.06;100187.88;5205034;28;20028;-80
2021/05/26 05:54:54;;;;;;;4.68;1.60;;;;;;;16.54;71.14;100184.91;5223608;28;20282;-81
2021/05/26 05:57:24;;;;;;;7.65;1.95;;;;;;;15.48;73.98;100195.25;5223856;28;20490;-80
2021/05/26 05:59:55;;;;;;;7.18;1.90;;;;;;;14.55;78.37;100189.50;5204601;28;20505;-79
2021/05/26 06:02:25;;;;;;;6.97;1.80;;;;;;;14.27;78.56;100199.94;5225096;28;20039;-80
2021/05/26 06:04:55;;;;;;;7.47;2.10;;;;;;;13.68;80.81;100191.84;5225771;28;20031;-80
2021/05/26 06:07:26;;;;;;;7.10;2.37;;;;;;;14.07;80.84;100182.59;5209089;28;20114;-80
2021/05/26 06:09:57;;;;;;;7.75;2.17;;;;;;;13.78;79.93;100190.41;5226877;28;20292;-80
2021/05/26 06:12:27;;;;;;;8.35;1.90;;;;;;;14.36;80.11;100183.63;5226202;28;20021;-81
2021/05/26 06:14:57;;;;;;;5.75;1.85;;;;;;;14.26;80.31;100180.66;5227121;28;20407;-80
2021/05/26 06:17:28;;;;;;;8.50;1.98;;;;;;;14.25;79.72;100186.03;5209847;28;20027;-80
2021/05/26 06:19:59;;;;;;;6.68;1.98;;;;;;;14.73;78.41;100183.22;5225651;28;20120;-80
2021/05/26 06:22:30;;;;;;;5.05;1.67;;;;;;;14.17;78.95;100181.22;5208434;28;20025;-81
2021/05/26 06:25:00;;;;;;;5.43;1.70;;;;;;;14.63;79.64;100182.88;5208912;28;20111;-81
2021/05/26 06:27:30;;;;;;;6.43;1.83;;;;;;;15.06;77.11;100172.38;5227046;28;20032;-80
2021/05/26 06:30:00;;;;;;;8.63;2.15;;;;;;;15.64;75.26;100174.94;5226508;28;20025;-80
2021/05/26 06:32:31;;;;;;;4.57;1.70;;;;;;;16.09;73.28;100167.63;5225862;28;20029;-81
2021/05/26 06:35:02;;;;;;;9.15;2.42;;;;;;;14.92;75.47;100182.03;5207960;28;20283;-81
2021/05/26 06:37:32;;;;;;;8.23;2.10;;;;;;;15.96;73.89;100179.88;5209720;28;20033;-81
2021/05/26 06:40:05;;;;;;;5.95;1.70;;;;;;;15.89;73.54;100175.94;5227915;28;20032;-81
2021/05/26 06:42:35;;;;;;;6.32;1.95;;;;;;;16.38;73.07;100174.50;5227220;28;20035;-81
2021/05/26 06:45:06;;;;;;;7.45;2.20;;;;;;;16.64;71.14;100165.72;5211520;28;20024;-81
2021/05/26 06:47:36;;;;;;;8.00;2.08;;;;;;;17.95;68.95;100165.25;5224862;28;20100;-81
2021/05/26 06:50:07;;;;;;;8.38;2.10;;;;;;;18.09;67.70;100155.38;5211781;28;20029;-81
2021/05/26 06:52:37;;;;;;;9.80;2.20;;;;;;;18.44;67.13;100158.97;5229216;28;20028;-82
2021/05/26 06:55:08;;;;;;;10.50;2.10;;;;;;;18.07;68.43;100156.44;5211537;28;20033;-81
2021/05/26 06:57:39;;;;;;;7.13;2.00;;;;;;;18.06;65.07;100158.25;5211657;28;20025;-81
2021/05/26 07:00:10;;;;;;;11.57;2.28;;;;;;;17.60;67.72;100153.72;5211661;28;20029;-82
2021/05/26 07:02:40;;;;;;;7.22;1.85;;;;;;;18.29;64.72;100153.94;5228153;28;20025;-81
2021/05/26 07:05:11;;;;;;;6.03;1.65;;;;;;;18.14;65.94;100150.59;5211672;28;20024;-81
2021/05/26 07:07:41;;;;;;;8.02;2.05;;;;;;;18.15;64.67;100141.69;5210488;28;20028;-81
2021/05/26 07:10:12;;;;;;;9.05;2.25;;;;;;;17.42;67.48;100160.28;5229201;28;20044;-81
2021/05/26 07:12:43;;;;;;;8.77;2.00;;;;;;;16.98;66.87;100149.28;5210538;28;20094;-81
2021/05/26 07:15:15;;;;;;;7.22;1.77;;;;;;;17.48;67.55;100144.03;5211275;28;20032;-81
2021/05/26 07:17:45;;;;;;;7.35;1.83;;;;;;;17.67;67.79;100147.06;5210226;28;20027;-81
2021/05/26 07:20:16;;;;;;;7.60;2.20;;;;;;;16.91;68.76;100150.66;5228766;28;20033;-81
2021/05/26 07:22:46;;;;;;;11.00;2.13;;;;;;;17.49;66.60;100153.63;5228566;28;20024;-81
2021/05/26 07:25:17;;;;;;;8.57;2.20;;;;;;;17.57;66.46;100148.66;5228510;28;20611;-81
2021/05/26 07:27:47;;;;;;;10.00;2.20;;;;;;;16.92;68.24;100134.72;5228601;28;20437;-81
2021/05/26 07:30:18;;;;;;;7.88;2.22;;;;;;;17.76;66.26;100143.72;5228003;28;20036;-81
2021/05/26 07:32:48;;;;;;;9.02;2.10;;;;;;;17.61;67.18;100150.09;5227763;28;20029;-81
2021/05/26 07:35:19;;;;;;;10.10;2.00;;;;;;;16.72;68.97;100154.66;5228488;28;20025;-81
2021/05/26 07:37:49;;;;;;;9.38;2.22;;;;;;;15.62;72.52;100156.59;5210873;28;20541;-81
2021/05/26 07:40:19;;;;;;;8.35;2.10;;;;;;;16.56;69.83;100146.91;5210874;28;20028;-81
2021/05/26 07:42:50;;;;;;;7.55;1.92;;;;;;;15.94;71.71;100151.91;5227795;28;20025;-81
2021/05/26 07:45:20;;;;;;;8.23;1.90;;;;;;;16.39;71.85;100144.53;5210620;28;20040;-81
2021/05/26 07:47:51;;;;;;;9.18;1.83;;;;;;;16.67;69.53;100133.84;5228474;28;20025;-81
2021/05/26 07:50:21;;;;;;;7.55;1.77;;;;;;;18.47;67.62;100131.41;5229056;28;20396;-81
2021/05/26 07:52:51;;;;;;;8.02;2.03;;;;;;;18.17;62.75;100128.38;5227796;28;20033;-81
2021/05/26 07:55:22;;;;;;;8.65;1.88;;;;;;;17.64;67.38;100136.69;5211163;28;20104;-81
2021/05/26 07:57:52;;;;;;;6.63;1.80;;;;;;;17.31;68.28;100139.88;5208607;28;20100;-81
2021/05/26 08:00:23;;;;;;;6.80;1.67;;;;;;;17.71;66.67;100130.88;5220932;22;20069;-79
2021/05/26 08:02:53;;;;;;;5.78;1.50;;;;;;;17.28;68.07;100136.63;5204976;28;20028;-79
2021/05/26 08:05:24;;;;;;;8.48;1.80;;;;;;;17.01;68.88;100136.72;5222846;28;20335;-79
2021/05/26 08:07:55;;;;;;;5.97;1.60;;;;;;;16.51;70.41;100137.59;5205421;28;20536;-79
2021/05/26 08:10:25;;;;;;;9.07;1.75;;;;;;;15.68;72.76;100148.31;5214744;28;20037;-78
2021/05/26 08:12:55;;;;;;;7.00;2.00;;;;;;;15.57;73.60;100136.75;5210862;28;20029;-79
2021/05/26 08:15:26;;;;;;;8.70;1.92;;;;;;;16.83;70.61;100129.22;5213916;28;20035;-79
2021/05/26 08:17:56;;;;;;;9.52;1.90;;;;;;;16.51;69.51;100125.25;5215086;28;20078;-79
2021/05/26 08:20:27;;;;;;;5.18;1.88;;;;;;;16.47;70.02;100130.84;5214711;28;20028;-78
2021/05/26 08:22:57;;;;;;;7.10;1.90;;;;;;;16.28;69.93;100130.34;5214507;28;20094;-78
2021/05/26 08:25:28;;;;;;;7.85;1.90;;;;;;;15.60;70.45;100129.50;5214200;28;20029;-78
2021/05/26 08:27:58;;;;;;;7.57;1.50;;;;;;;15.77;70.25;100118.75;5214203;28;20382;-79
2021/05/26 08:30:28;;;;;;;8.83;2.07;;;;;;;15.90;70.44;100119.63;5218093;28;20112;-78
2021/05/26 08:32:59;;;;;;;9.38;1.60;;;;;;;15.67;71.15;100120.28;5207619;28;20765;-78
2021/05/26 08:35:29;;;;;;;7.80;1.80;;;;;;;15.15;72.08;100124.44;5209641;28;20113;-78
2021/05/26 08:38:01;;;;;;;8.85;1.88;;;;;;;15.33;71.86;100122.50;5210691;28;20029;-78
2021/05/26 08:40:31;;;;;;;6.00;1.75;;;;;;;14.99;72.80;100123.66;5205668;28;20116;-79
2021/05/26 08:43:02;;;;;;;7.43;1.90;;;;;;;14.60;73.50;100119.09;5206610;28;20226;-79
2021/05/26 08:45:33;;;;;;;7.82;1.90;;;;;;;15.09;72.68;100122.19;5215438;28;20090;-78
2021/05/26 08:48:05;;;;;;;9.15;2.05;;;;;;;16.34;68.62;100109.69;5211760;28;20442;-79
2021/05/26 08:50:35;;;;;;;10.88;2.53;;;;;;;18.98;67.18;100099.16;5214185;28;20032;-79
2021/05/26 08:53:06;;;;;;;7.90;1.98;;;;;;;18.26;64.41;100095.94;5211115;28;20037;-79
2021/05/26 08:55:37;;;;;;;8.48;2.10;;;;;;;17.82;67.70;100095.72;5214281;28;20039;-79
2021/05/26 08:58:07;;;;;;;4.90;1.77;;;;;;;17.55;65.56;100098.56;5211836;28;20033;-79
2021/05/26 09:00:37;;;;;;;8.45;1.90;;;;;;;16.85;67.60;100099.13;5214129;28;20031;-79
2021/05/26 09:03:08;;;;;;;6.63;1.70;;;;;;;16.53;68.91;100101.44;5207247;28;20033;-79
2021/05/26 09:05:39;;;;;;;6.35;1.85;;;;;;;16.37;69.97;100098.94;5209590;28;20292;-79
2021/05/26 09:08:15;;;;;;;11.48;2.35;;;;;;;16.47;68.54;100089.50;5202163;28;20041;-79
2021/05/26 09:10:54;;;;;;;8.38;2.20;;;;;;;19.06;62.46;100083.50;5203060;28;20041;-79
2021/05/26 09:13:36;;;;;;;6.10;1.95;;;;;;;19.02;61.28;100069.69;5201321;28;20503;-80
2021/05/26 09:16:29;;;;;;;7.88;2.00;;;;;;;19.18;61.02;100072.00;5220538;28;20033;-80
2021/05/26 09:19:05;;;;;;;6.82;1.70;;;;;;;18.79;60.81;100086.50;5223842;28;20033;-80
2021/05/26 09:21:35;;;;;;;;;;;;;;;17.89;62.93;100091.66;5203023;28;20033;-79
2021/05/26 09:24:20;;;;;;;6.50;2.07;;;;;;;17.64;65.31;100087.31;5222711;28;19909;-80
2021/05/26 09:26:53;;;;;;;6.28;1.50;;;;;;;17.63;67.10;100087.44;5223556;28;20133;-81
2021/05/26 09:29:33;;;;;;;5.80;1.63;;;;;;;18.83;66.06;100082.66;5224055;28;20399;-79
2021/05/26 09:32:14;;;;;;;6.47;1.75;;;;;;;17.88;65.75;100080.25;5220452;28;20036;-79
2021/05/26 09:34:52;;;;;;;5.03;1.30;;;;;;;20.62;62.75;100068.81;5219068;28;20024;-80
2021/05/26 09:37:28;;;;;;;7.68;1.55;;;;;;;21.29;60.09;100067.38;5211110;28;20025;-81
2021/05/26 09:40:01;;;;;;;6.63;1.55;;;;;;;20.39;58.49;100061.97;5225256;28;20030;-80
2021/05/26 09:42:36;;;;;;;5.75;1.50;;;;;;;19.83;61.50;100057.81;5225779;28;20025;-80
2021/05/26 09:45:07;;;;;;;5.53;1.55;;;;;;;19.26;63.89;100061.66;5229822;28;20047;-80
2021/05/26 09:47:45;;;;;;;6.97;1.60;;;;;;;18.36;62.67;100049.34;5225111;28;20030;-80
2021/05/26 09:50:30;;;;;;;5.22;1.30;;;;;;;17.68;65.00;100061.50;5226637;28;20048;-80
2021/05/26 09:53:08;;;;;;;4.07;1.30;;;;;;;17.20;65.10;100064.97;5229267;28;20045;-80
2021/05/26 09:55:41;;;;;;;3.97;1.40;;;;;;;16.99;67.75;100069.13;5226477;28;20029;-79
2021/05/26 09:58:20;;;;;;;4.95;1.38;;;;;;;16.46;67.92;100074.63;5228278;28;20055;-79
2021/05/26 10:00:50;;;;;;;6.80;2.05;;;;;;;17.21;67.66;100064.88;5224486;28;20051;-79
2021/05/26 10:03:21;;;;;;;7.60;2.08;;;;;;;17.68;67.21;100064.16;5219896;28;20132;-80
2021/05/26 10:05:51;;;;;;;6.60;1.65;;;;;;;17.50;67.50;100070.78;5222718;28;20025;-79
2021/05/26 10:08:22;;;;;;;4.90;1.50;;;;;;;16.70;68.94;100064.19;5227895;28;20032;-79
2021/05/26 10:10:55;;;;;;;5.68;1.40;;;;;;;16.59;70.40;100056.16;5225407;28;20090;-80
2021/05/26 10:13:26;;;;;;;7.25;1.60;;;;;;;17.19;70.56;100053.59;5210728;28;20028;-79
2021/05/26 10:15:58;;;;;;;4.10;1.30;;;;;;;17.70;70.85;100055.16;5224192;28;20040;-80
2021/05/26 10:18:31;;;;;;;3.25;1.08;;;;;;;17.84;71.11;100051.50;5209754;28;20052;-79
2021/05/26 10:21:02;;;;;;;3.72;1.10;;;;;;;17.14;70.18;100049.59;5208991;28;20033;-80
2021/05/26 10:23:32;;;;;;;3.95;0.98;;;;;;;16.36;70.69;100039.25;5227889;28;20087;-80
2021/05/26 10:26:03;;;;;;;4.10;1.15;;;;;;;16.55;70.25;100038.84;5210920;28;20038;-79
2021/05/26 10:28:33;;;;;;;4.82;1.05;;;;;;;16.60;69.04;100037.59;5226011;28;20021;-80
2021/05/26 10:31:05;;;;;;;3.70;1.00;;;;;;;16.66;69.39;100036.28;5229410;28;20025;-80
2021/05/26 10:33:42;;;;;;;3.65;1.30;;;;;;;16.61;70.59;100026.09;5221949;28;20331;-79
2021/05/26 10:36:14;;;;;;;3.25;1.13;;;;;;;16.74;70.94;100039.28;5223507;28;20029;-79
2021/05/26 10:39:00;;;;;;;3.47;1.00;;;;;;;17.06;69.34;100033.41;5227540;28;20060;-80
2021/05/26 10:41:57;;;;;;;2.78;0.90;;;;;;;17.13;68.67;100045.25;5230603;28;20025;-80
2021/05/26 10:44:46;;;;;;;;;;;;;;;16.87;68.14;100039.16;5225555;28;20029;-80
2021/05/26 10:47:38;;;;;;;1.45;0.80;;;;;;;17.58;69.33;100029.63;5225875;28;19917;-80
2021/05/26 10:50:43;;;;;;;2.72;1.00;;;;;;;17.79;69.92;100029.88;5231611;28;20025;-80
2021/05/26 10:53:16;;;;;;;3.00;1.13;;;;;;;17.89;70.60;100020.28;5218155;28;20040;-80
2021/05/26 10:55:51;;;;;;;2.60;0.93;;;;;;;17.21;69.74;100029.69;5207332;28;20032;-80
2021/05/26 10:58:48;;;;;;;2.75;1.00;;;;;;;16.50;70.16;100020.69;5222292;28;20065;-80
2021/05/26 11:01:18;;;;;;;;;;;;;;;16.24;69.81;100029.47;5223827;28;20116;-80
2021/05/26 11:03:49;;;;;;;2.80;0.83;;;;;;;15.83;70.46;100035.78;5226184;28;19969;-80
2021/05/26 11:06:19;;;;;;;2.00;0.80;;;;;;;15.71;70.31;100045.34;5210791;28;20280;-79
2021/05/26 11:08:53;;;;;;;3.07;1.07;;;;;;;15.58;74.60;100049.75;5227314;28;20029;-80
2021/05/26 11:14:05;;;;;;;2.67;0.87;;;;;;;15.17;80.35;100056.72;5230440;28;20033;-80
2021/05/26 11:16:44;;;;;;;2.33;0.90;;;;;;;15.73;79.93;100046.09;5227755;28;20026;-80
2021/05/26 11:19:21;;;;;;;3.42;1.00;;;;;;;16.09;79.48;100048.97;5231679;28;20035;-80
2021/05/26 11:22:01;;;;;;;3.05;0.93;;;;;;;16.25;79.00;100041.72;5227370;28;20033;-80
2021/05/26 11:24:38;;;;;;;6.60;2.80;;;;;;;16.70;78.19;100043.91;5231442;28;20050;-80
2021/05/26 11:27:20;;;;;;;2.35;0.80;;;;;;;16.83;73.84;100042.13;5231584;28;20481;-80
2021/05/26 11:29:53;;;;;;;4.47;0.82;;;;;;;16.06;74.43;100062.34;5228442;28;20032;-80
2021/05/26 11:32:24;;;;;;;2.10;0.80;;;;;;;16.73;75.93;100037.59;5224538;28;20021;-79
2021/05/26 11:34:56;;;;;;;1.80;0.82;;;;;;;15.88;73.91;100052.19;5222189;28;20044;-82
2021/05/26 11:37:37;;;;;;;2.55;0.70;;;;;;;15.72;75.69;100057.56;5222583;28;20021;-80
2021/05/26 11:40:23;;;;;;;3.92;0.90;;;;;;;15.44;80.73;100052.41;5228840;28;20033;-81
2021/05/26 11:42:56;;;;;;;2.53;1.00;;;;;;;15.99;81.02;100060.19;5224294;28;20025;-80
2021/05/26 11:45:27;;;;;;;2.90;0.88;;;;;;;16.43;82.18;100043.16;5217447;28;20035;-81
2021/05/26 11:48:02;;;;;;;2.58;0.90;;;;;;;16.96;78.81;100050.88;5224910;28;20092;-80
2021/05/26 11:50:32;;;;;;;2.70;1.02;;;;;;;17.29;79.95;100032.66;5210512;28;20022;-81
2021/05/26 11:53:02;;;;;;;3.50;1.02;;;;;;;17.57;76.55;100030.59;5229546;28;20036;-81